Time;durP1;ratioP1;P1;durP2;ratioP2;P2;SDS_P1;SDS_P2;PMS_P1;PMS_P2;Temp;Humidity;BMP_temperature;BMP_pressure;BME280_temperature;BME280_humidity;BME280_pressure;Samples;Min_cycle;Max_cycle;Signal;HPM_P1;HPM_P2
2022/09/14 00:01:10;;;;;;;3.40;3.15;;;20.60;99.90;;;;;;916708;152;28499;-77
2022/09/14 00:03:36;;;;;;;3.72;2.90;;;20.60;99.90;;;;;;913469;152;27312;-77
2022/09/14 00:06:06;;;;;;;3.67;3.17;;;20.60;99.90;;;;;;916542;152;27339;-77
2022/09/14 00:08:33;;;;;;;3.72;3.15;;;20.50;99.90;;;;;;915695;152;27315;-77
2022/09/14 00:10:59;;;;;;;2.75;2.55;;;20.60;99.90;;;;;;912433;152;27360;-77
2022/09/14 00:13:25;;;;;;;3.17;2.85;;;20.50;99.90;;;;;;912544;152;27443;-77
2022/09/14 00:15:52;;;;;;;3.25;2.95;;;20.50;99.90;;;;;;914656;152;27313;-77
2022/09/14 00:18:19;;;;;;;3.47;2.75;;;20.60;99.90;;;;;;915119;152;27427;-77
2022/09/14 00:20:45;;;;;;;3.55;3.25;;;20.60;99.90;;;;;;915574;152;27345;-77
2022/09/14 00:23:12;;;;;;;3.50;2.83;;;20.50;99.90;;;;;;915807;152;27344;-77
2022/09/14 00:25:38;;;;;;;3.25;3.05;;;20.60;99.90;;;;;;914973;152;27424;-77
2022/09/14 00:28:05;;;;;;;3.55;3.25;;;20.60;99.90;;;;;;913801;153;27506;-77
2022/09/14 00:30:32;;;;;;;4.95;3.87;;;20.60;99.90;;;;;;913677;152;27323;-77
2022/09/14 00:32:58;;;;;;;3.90;3.60;;;20.60;99.90;;;;;;913690;152;27360;-77
2022/09/14 00:35:25;;;;;;;4.08;3.77;;;20.60;99.90;;;;;;913364;152;27279;-77
2022/09/14 00:37:51;;;;;;;4.28;3.87;;;20.60;99.90;;;;;;913442;152;27383;-77
2022/09/14 00:40:18;;;;;;;4.45;4.03;;;20.60;99.90;;;;;;914615;152;27367;-77
2022/09/14 00:42:45;;;;;;;4.78;4.37;;;20.60;99.90;;;;;;915269;152;27346;-77
2022/09/14 00:45:14;;;;;;;4.80;4.37;;;20.60;99.90;;;;;;915873;152;27336;-77
2022/09/14 00:47:40;;;;;;;4.60;4.17;;;20.60;99.90;;;;;;914173;152;27393;-77
2022/09/14 00:50:07;;;;;;;4.05;3.72;;;20.60;99.90;;;;;;914420;152;27358;-76
2022/09/14 00:52:34;;;;;;;4.37;4.08;;;20.60;99.90;;;;;;913934;152;27317;-77
2022/09/14 00:55:00;;;;;;;4.40;4.10;;;20.60;99.90;;;;;;913771;152;27331;-76
2022/09/14 00:57:27;;;;;;;4.22;3.92;;;20.60;99.90;;;;;;913223;152;27417;-77
2022/09/14 00:59:53;;;;;;;5.25;4.58;;;20.60;99.90;;;;;;914330;152;27336;-77
2022/09/14 01:02:20;;;;;;;4.03;3.70;;;20.60;99.90;;;;;;914514;152;27360;-76
2022/09/14 01:04:47;;;;;;;5.42;3.87;;;20.60;99.90;;;;;;912366;152;27361;-76
2022/09/14 01:07:25;;;;;;;4.75;4.35;;;20.60;99.90;;;;;;915155;152;27364;-76
2022/09/14 01:09:58;;;;;;;4.67;3.95;;;20.60;99.90;;;;;;915402;152;27295;-76
2022/09/14 01:12:37;;;;;;;4.28;3.87;;;20.60;99.90;;;;;;914454;152;27340;-76
2022/09/14 01:15:25;;;;;;;4.03;3.62;;;20.60;99.90;;;;;;914321;152;27427;-77
2022/09/14 01:18:00;;;;;;;4.35;3.95;;;20.50;99.90;;;;;;912378;152;27306;-76
2022/09/14 01:20:35;;;;;;;4.47;4.08;;;20.50;99.90;;;;;;914505;152;27406;-76
2022/09/14 01:23:36;;;;;;;4.17;3.80;;;20.50;99.90;;;;;;914390;152;27418;-76
2022/09/14 01:26:15;;;;;;;4.35;4.03;;;20.50;99.90;;;;;;915636;152;27271;-76
2022/09/14 01:28:47;;;;;;;4.72;4.33;;;20.50;99.90;;;;;;915359;152;27436;-76
2022/09/14 01:31:13;;;;;;;6.08;4.47;;;20.50;99.90;;;;;;890951;152;27418;-76
2022/09/14 01:33:40;;;;;;;4.33;3.87;;;20.40;99.90;;;;;;909532;152;27441;-76
2022/09/14 01:36:06;;;;;;;7.40;4.35;;;20.50;99.90;;;;;;914499;152;27406;-76
2022/09/14 01:38:45;;;;;;;4.33;4.03;;;20.50;99.90;;;;;;915909;151;27689;-76
2022/09/14 01:41:11;;;;;;;5.20;4.70;;;20.50;99.90;;;;;;910784;152;27356;-76
2022/09/14 01:43:40;;;;;;;5.35;4.95;;;20.50;99.90;;;;;;914808;152;27351;-76
2022/09/14 01:46:10;;;;;;;5.10;4.65;;;20.50;99.90;;;;;;913974;152;27356;-77
2022/09/14 01:48:36;;;;;;;5.47;4.90;;;20.40;99.90;;;;;;915841;152;27312;-77
2022/09/14 01:51:03;;;;;;;5.03;4.62;;;20.40;99.90;;;;;;913372;152;27264;-77
2022/09/14 01:53:33;;;;;;;5.35;4.85;;;20.40;99.90;;;;;;912655;152;27328;-77
2022/09/14 01:56:01;;;;;;;5.10;4.70;;;20.40;99.90;;;;;;913473;152;27361;-77
2022/09/14 01:58:37;;;;;;;5.92;4.92;;;20.40;99.90;;;;;;914250;152;28063;-77
2022/09/14 02:01:03;;;;;;;5.70;5.20;;;20.40;99.90;;;;;;914176;152;27452;-77
2022/09/14 02:03:33;;;;;;;5.28;4.78;;;20.40;99.90;;;;;;914276;152;27425;-77
2022/09/14 02:05:59;;;;;;;6.05;5.50;;;20.40;99.90;;;;;;914667;152;27434;-76
2022/09/14 02:08:26;;;;;;;5.55;5.05;;;20.40;99.90;;;;;;912346;152;28437;-77
2022/09/14 02:10:53;;;;;;;7.50;5.15;;;20.40;99.90;;;;;;913197;152;27322;-78
2022/09/14 02:13:19;;;;;;;5.30;4.87;;;20.40;99.90;;;;;;914373;152;27293;-78
2022/09/14 02:15:46;;;;;;;5.35;4.90;;;20.40;99.90;;;;;;914004;152;27454;-78
2022/09/14 02:18:12;;;;;;;6.08;5.58;;;20.40;99.90;;;;;;916012;152;27342;-78
2022/09/14 02:20:45;;;;;;;5.28;4.87;;;20.40;99.90;;;;;;912881;152;27256;-78
2022/09/14 02:23:11;;;;;;;5.05;4.53;;;20.30;99.90;;;;;;914811;152;27304;-77
2022/09/14 02:25:39;;;;;;;5.17;4.72;;;20.30;99.90;;;;;;915754;152;27336;-78
2022/09/14 02:28:05;;;;;;;5.33;4.83;;;20.30;99.90;;;;;;914612;152;27340;-78
2022/09/14 02:30:32;;;;;;;5.90;5.40;;;20.30;99.90;;;;;;915809;152;27465;-78
2022/09/14 02:32:58;;;;;;;5.87;5.15;;;20.30;99.90;;;;;;912081;153;27359;-78
2022/09/14 02:35:27;;;;;;;5.20;4.80;;;20.30;99.90;;;;;;913281;152;27335;-78
2022/09/14 02:38:21;;;;;;;5.03;4.45;;;20.30;99.90;;;;;;914387;152;27322;-78
2022/09/14 02:40:56;;;;;;;5.00;4.50;;;20.30;99.90;;;;;;915451;152;27326;-78
2022/09/14 02:43:47;;;;;;;5.20;4.70;;;20.30;99.90;;;;;;916246;152;27855;-78
2022/09/14 02:46:32;;;;;;;4.80;4.40;;;20.30;99.90;;;;;;915416;152;27440;-78
2022/09/14 02:49:14;;;;;;;4.62;4.33;;;20.30;99.90;;;;;;906550;152;27305;-77
2022/09/14 02:51:46;;;;;;;5.47;5.00;;;20.30;99.90;;;;;;915139;152;27331;-77
2022/09/14 02:54:13;;;;;;;4.40;4.10;;;20.30;99.90;;;;;;914649;152;27840;-77
2022/09/14 02:56:39;;;;;;;4.72;4.33;;;20.30;99.90;;;;;;913037;152;27328;-78
2022/09/14 02:59:06;;;;;;;4.50;4.20;;;20.20;99.90;;;;;;913956;152;27361;-77
2022/09/14 03:01:33;;;;;;;4.67;3.87;;;20.30;99.90;;;;;;914423;152;27316;-77
2022/09/14 03:03:59;;;;;;;5.85;5.00;;;20.20;99.90;;;;;;914062;152;27339;-77
2022/09/14 03:06:26;;;;;;;4.50;4.05;;;20.20;99.90;;;;;;914891;152;27307;-77
2022/09/14 03:08:52;;;;;;;4.78;4.35;;;20.30;99.90;;;;;;914467;152;27414;-77
2022/09/14 03:11:19;;;;;;;4.83;3.60;;;20.20;99.90;;;;;;914069;152;27341;-77
2022/09/14 03:13:45;;;;;;;4.30;3.90;;;20.20;99.90;;;;;;916008;152;27390;-77
2022/09/14 03:16:12;;;;;;;4.08;3.80;;;20.20;99.90;;;;;;914837;152;27383;-77
2022/09/14 03:18:39;;;;;;;4.80;4.20;;;20.20;99.90;;;;;;914167;152;27288;-77
2022/09/14 03:21:05;;;;;;;4.30;3.98;;;20.20;99.90;;;;;;914507;152;27416;-77
2022/09/14 03:23:40;;;;;;;4.70;4.28;;;20.20;99.90;;;;;;921818;151;27462;-78
2022/09/14 03:26:07;;;;;;;3.95;3.62;;;20.20;99.90;;;;;;921673;151;27279;-77
2022/09/14 03:28:34;;;;;;;4.03;3.62;;;20.20;99.90;;;;;;922512;151;27427;-77
2022/09/14 03:31:03;;;;;;;3.75;3.45;;;20.20;99.90;;;;;;922942;151;27483;-77
2022/09/14 03:33:30;;;;;;;3.72;3.35;;;20.20;99.90;;;;;;922379;151;27374;-77
2022/09/14 03:35:57;;;;;;;3.55;3.25;;;20.20;99.90;;;;;;921440;151;27389;-77
2022/09/14 03:38:25;;;;;;;3.62;3.08;;;20.20;99.90;;;;;;924301;151;27366;-77
2022/09/14 03:40:50;;;;;;;3.10;2.80;;;20.20;99.90;;;;;;924195;151;27406;-77
2022/09/14 03:43:16;;;;;;;3.10;2.90;;;20.20;99.90;;;;;;922209;151;27318;-78
2022/09/14 03:45:43;;;;;;;5.08;2.72;;;20.20;99.90;;;;;;922102;151;27443;-78
2022/09/14 03:48:10;;;;;;;3.02;2.83;;;20.20;99.90;;;;;;922577;151;27452;-78
2022/09/14 03:50:36;;;;;;;3.12;2.85;;;20.20;99.90;;;;;;921818;151;27302;-78
2022/09/14 03:53:03;;;;;;;4.30;3.10;;;20.20;99.90;;;;;;923882;151;27383;-78
2022/09/14 03:55:29;;;;;;;3.92;3.12;;;20.20;99.90;;;;;;921998;151;27382;-78
2022/09/14 03:57:56;;;;;;;3.92;2.75;;;20.20;99.90;;;;;;920477;151;27417;-77
2022/09/14 04:00:22;;;;;;;3.10;2.80;;;20.20;99.90;;;;;;921051;151;27345;-77
2022/09/14 04:02:49;;;;;;;4.80;3.15;;;20.20;99.90;;;;;;921857;151;27377;-78
2022/09/14 04:05:16;;;;;;;3.12;2.92;;;20.20;99.90;;;;;;921912;151;27331;-78
2022/09/14 04:07:42;;;;;;;3.05;2.80;;;20.20;99.90;;;;;;922374;151;27415;-77
2022/09/14 04:10:09;;;;;;;3.40;2.95;;;20.20;99.90;;;;;;923427;151;27277;-77
2022/09/14 04:12:35;;;;;;;3.10;2.90;;;20.20;99.90;;;;;;922097;151;27443;-78
2022/09/14 04:15:02;;;;;;;3.30;3.00;;;20.20;99.90;;;;;;923145;151;27382;-77
2022/09/14 04:17:29;;;;;;;3.60;3.08;;;20.20;99.90;;;;;;923050;151;27286;-77
2022/09/14 04:19:55;;;;;;;3.70;3.40;;;20.20;99.90;;;;;;920612;151;27395;-77
2022/09/14 04:22:22;;;;;;;3.27;3.00;;;20.20;99.90;;;;;;921719;151;27426;-78
2022/09/14 04:24:49;;;;;;;3.35;3.05;;;20.20;99.90;;;;;;912973;152;27383;-78
2022/09/14 04:27:15;;;;;;;3.42;3.12;;;20.20;99.90;;;;;;912749;152;27358;-78
2022/09/14 04:29:41;;;;;;;3.05;2.83;;;20.20;99.90;;;;;;913807;152;27356;-78
2022/09/14 04:32:08;;;;;;;3.65;2.92;;;20.20;99.90;;;;;;913705;152;27400;-78
2022/09/14 04:34:35;;;;;;;4.20;2.58;;;20.10;99.90;;;;;;914926;152;27244;-78
2022/09/14 04:37:01;;;;;;;3.45;3.15;;;20.10;99.90;;;;;;916488;152;27360;-78
2022/09/14 04:39:28;;;;;;;4.55;3.02;;;20.20;99.90;;;;;;914749;152;27642;-77
2022/09/14 04:41:54;;;;;;;4.15;2.65;;;20.20;99.90;;;;;;911470;152;27410;-77
2022/09/14 04:44:21;;;;;;;3.70;3.08;;;20.20;99.90;;;;;;915532;152;27393;-77
2022/09/14 04:46:48;;;;;;;4.45;3.45;;;20.20;99.90;;;;;;912696;152;27313;-77
2022/09/14 04:49:15;;;;;;;3.85;3.42;;;20.10;99.90;;;;;;915214;152;27418;-77
2022/09/14 04:51:41;;;;;;;4.28;3.20;;;20.20;99.90;;;;;;913923;152;27453;-77
2022/09/14 04:54:07;;;;;;;3.50;3.20;;;20.20;99.90;;;;;;912912;152;27338;-77
2022/09/14 04:56:34;;;;;;;3.70;3.30;;;20.10;99.90;;;;;;914158;152;27792;-77
2022/09/14 04:59:02;;;;;;;3.20;2.98;;;20.10;99.90;;;;;;912164;152;27353;-77
2022/09/14 05:01:27;;;;;;;5.03;3.40;;;20.20;99.90;;;;;;914622;152;27307;-78
2022/09/14 05:03:54;;;;;;;3.22;2.87;;;20.10;99.90;;;;;;914802;152;27447;-77
2022/09/14 05:06:20;;;;;;;3.52;3.15;;;20.20;99.90;;;;;;914524;152;27364;-77
2022/09/14 05:08:47;;;;;;;3.83;3.40;;;20.10;99.90;;;;;;916289;152;27312;-77
2022/09/14 05:11:17;;;;;;;3.15;2.92;;;20.10;99.90;;;;;;913242;152;27440;-77
2022/09/14 05:13:43;;;;;;;3.60;3.30;;;20.10;99.90;;;;;;913948;152;27316;-77
2022/09/14 05:16:22;;;;;;;3.37;3.08;;;20.10;99.90;;;;;;915334;149;27960;-77
2022/09/14 05:18:48;;;;;;;3.90;3.60;;;20.10;99.90;;;;;;912288;152;27476;-77
2022/09/14 05:21:15;;;;;;;3.22;2.87;;;20.10;99.90;;;;;;917028;152;27340;-77
2022/09/14 05:23:41;;;;;;;3.40;3.10;;;20.10;99.90;;;;;;912903;152;27381;-77
2022/09/14 05:26:08;;;;;;;5.00;3.02;;;20.10;99.90;;;;;;915808;152;27318;-77
2022/09/14 05:28:35;;;;;;;3.35;3.05;;;20.10;99.90;;;;;;913498;152;27335;-77
2022/09/14 05:31:04;;;;;;;3.08;2.85;;;20.10;99.90;;;;;;913344;152;27441;-77
2022/09/14 05:33:31;;;;;;;3.58;3.27;;;20.10;99.90;;;;;;915182;152;27331;-77
2022/09/14 05:36:03;;;;;;;4.17;3.15;;;20.10;99.90;;;;;;913840;152;27287;-77
2022/09/14 05:38:30;;;;;;;3.70;3.50;;;20.20;99.90;;;;;;916415;152;27296;-77
2022/09/14 05:40:56;;;;;;;4.25;3.52;;;20.20;99.90;;;;;;913789;152;27311;-77
2022/09/14 05:43:23;;;;;;;3.95;3.52;;;20.10;99.90;;;;;;915654;152;28035;-78
2022/09/14 05:45:50;;;;;;;5.22;3.85;;;20.20;99.90;;;;;;914826;152;27352;-78
2022/09/14 05:48:16;;;;;;;4.28;3.65;;;20.20;99.90;;;;;;914239;152;27339;-77
2022/09/14 05:50:43;;;;;;;4.22;3.75;;;20.20;99.90;;;;;;912560;152;27365;-77
2022/09/14 05:53:09;;;;;;;3.52;3.22;;;20.20;99.90;;;;;;915328;152;28143;-77
2022/09/14 05:55:36;;;;;;;3.92;3.52;;;20.20;99.90;;;;;;913169;152;27364;-77
2022/09/14 05:58:03;;;;;;;4.00;3.05;;;20.20;99.90;;;;;;912316;152;27343;-77
2022/09/14 06:00:30;;;;;;;3.70;3.40;;;20.30;99.90;;;;;;915180;152;27428;-77
2022/09/14 06:02:56;;;;;;;3.33;3.02;;;20.30;99.90;;;;;;914196;152;27429;-77
2022/09/14 06:05:24;;;;;;;3.25;2.95;;;20.30;99.90;;;;;;915104;152;27447;-77
2022/09/14 06:07:52;;;;;;;2.87;2.67;;;20.30;99.90;;;;;;915500;152;27354;-77
2022/09/14 06:10:18;;;;;;;3.33;2.77;;;20.40;99.90;;;;;;914574;152;27436;-77
2022/09/14 06:12:45;;;;;;;3.12;2.92;;;20.40;99.90;;;;;;913974;152;27427;-77
2022/09/14 06:15:11;;;;;;;2.83;2.62;;;20.40;99.90;;;;;;914613;152;27271;-77
2022/09/14 06:17:38;;;;;;;3.05;2.83;;;20.40;99.90;;;;;;914437;152;27377;-77
2022/09/14 06:20:06;;;;;;;4.10;3.70;;;20.50;99.90;;;;;;913916;152;27376;-77
2022/09/14 06:22:31;;;;;;;4.20;3.80;;;20.50;99.90;;;;;;914355;152;27367;-77
2022/09/14 06:24:58;;;;;;;3.15;2.85;;;20.50;99.90;;;;;;914322;152;27458;-77
2022/09/14 06:27:26;;;;;;;3.50;3.20;;;20.60;99.90;;;;;;913831;152;27315;-77
2022/09/14 06:29:52;;;;;;;3.50;3.12;;;20.60;99.90;;;;;;915591;152;27405;-77
2022/09/14 06:32:18;;;;;;;3.17;2.92;;;20.60;99.90;;;;;;915192;152;27331;-77
2022/09/14 06:34:44;;;;;;;3.30;3.10;;;20.60;99.90;;;;;;915373;152;27354;-77
2022/09/14 06:37:11;;;;;;;3.72;3.35;;;20.70;99.90;;;;;;915290;152;27386;-77
2022/09/14 06:39:37;;;;;;;3.60;3.30;;;20.70;99.90;;;;;;914019;152;27312;-77
2022/09/14 06:42:04;;;;;;;3.65;3.35;;;20.70;99.90;;;;;;913585;152;27311;-77
2022/09/14 06:44:31;;;;;;;3.50;3.08;;;20.80;99.90;;;;;;915270;152;27339;-77
2022/09/14 06:46:57;;;;;;;5.65;3.65;;;20.80;99.90;;;;;;913825;152;27334;-77
2022/09/14 06:49:24;;;;;;;2.95;2.75;;;20.80;99.90;;;;;;915169;152;27345;-77
2022/09/14 06:51:53;;;;;;;3.55;2.70;;;20.90;99.90;;;;;;916236;152;28043;-77
2022/09/14 06:54:17;;;;;;;3.33;2.87;;;20.90;99.90;;;;;;915793;152;27286;-77
2022/09/14 06:56:44;;;;;;;3.33;2.40;;;20.90;99.90;;;;;;914572;152;27355;-77
2022/09/14 06:59:10;;;;;;;2.50;2.30;;;21.00;99.90;;;;;;915754;152;27379;-77
2022/09/14 07:01:37;;;;;;;2.33;2.12;;;21.00;99.90;;;;;;914969;152;28243;-77
2022/09/14 07:04:04;;;;;;;2.98;2.37;;;21.00;99.90;;;;;;915488;152;27487;-77
2022/09/14 07:06:45;;;;;;;2.77;2.45;;;21.10;99.90;;;;;;913125;152;27313;-77
2022/09/14 07:09:12;;;;;;;2.12;2.02;;;21.10;99.90;;;;;;914012;152;27394;-77
2022/09/14 07:11:38;;;;;;;2.45;2.35;;;21.20;99.90;;;;;;913198;152;27439;-77
2022/09/14 07:14:05;;;;;;;2.95;2.70;;;21.20;99.90;;;;;;913934;152;27362;-77
2022/09/14 07:16:31;;;;;;;2.80;2.60;;;21.20;99.90;;;;;;914435;152;27335;-77
2022/09/14 07:18:58;;;;;;;2.83;2.62;;;21.30;99.90;;;;;;913070;152;27810;-77
2022/09/14 07:21:24;;;;;;;2.72;2.40;;;21.30;99.90;;;;;;915068;152;27340;-77
2022/09/14 07:23:51;;;;;;;2.90;2.60;;;21.40;99.90;;;;;;913287;152;27362;-77
2022/09/14 07:26:27;;;;;;;3.17;2.75;;;21.50;99.90;;;;;;921968;151;27492;-77
2022/09/14 07:28:53;;;;;;;2.75;2.55;;;21.60;99.90;;;;;;922470;151;27369;-77
2022/09/14 07:31:20;;;;;;;4.75;2.50;;;21.70;99.90;;;;;;922077;151;27322;-77
2022/09/14 07:33:46;;;;;;;3.22;2.75;;;21.90;99.90;;;;;;921001;151;27412;-77
2022/09/14 07:36:13;;;;;;;5.53;3.20;;;22.00;99.90;;;;;;921747;151;27440;-77
2022/09/14 07:38:39;;;;;;;2.90;2.65;;;22.10;99.90;;;;;;922172;151;27468;-77
2022/09/14 07:41:06;;;;;;;3.50;3.20;;;22.20;99.90;;;;;;920633;151;27359;-77
2022/09/14 07:43:33;;;;;;;2.98;2.62;;;22.20;99.90;;;;;;921427;151;27371;-77
2022/09/14 07:46:03;;;;;;;3.22;2.92;;;22.30;99.90;;;;;;919994;151;27360;-77
2022/09/14 07:48:29;;;;;;;3.05;2.85;;;22.40;99.90;;;;;;920304;151;27447;-77
2022/09/14 07:50:58;;;;;;;2.62;2.42;;;22.40;99.90;;;;;;920405;151;27356;-77
2022/09/14 07:53:25;;;;;;;3.08;2.85;;;22.50;99.90;;;;;;923110;151;27465;-77
2022/09/14 07:55:51;;;;;;;2.47;2.37;;;22.60;99.90;;;;;;921697;151;27381;-77
2022/09/14 07:58:18;;;;;;;3.62;3.00;;;22.70;99.90;;;;;;923403;151;27942;-77
2022/09/14 08:00:45;;;;;;;3.85;2.80;;;22.90;99.90;;;;;;922173;151;27308;-77
2022/09/14 08:03:11;;;;;;;4.12;2.40;;;23.00;99.90;;;;;;921776;151;27308;-77
2022/09/14 08:05:38;;;;;;;2.92;2.33;;;23.20;99.90;;;;;;923893;151;27334;-77
2022/09/14 08:08:05;;;;;;;2.33;2.12;;;23.30;99.90;;;;;;922512;151;27330;-77
2022/09/14 08:10:31;;;;;;;2.65;2.27;;;23.30;99.90;;;;;;921484;151;27312;-77
2022/09/14 08:12:58;;;;;;;2.35;2.17;;;23.40;99.90;;;;;;921093;151;27433;-77
2022/09/14 08:15:24;;;;;;;3.45;2.12;;;23.40;99.90;;;;;;922725;151;27297;-77
2022/09/14 08:17:51;;;;;;;2.62;2.30;;;23.40;99.90;;;;;;922311;151;27314;-77
2022/09/14 08:20:18;;;;;;;2.83;2.30;;;23.40;99.90;;;;;;921386;151;27361;-77
2022/09/14 08:22:44;;;;;;;1.95;1.85;;;23.40;99.90;;;;;;921244;151;28056;-77
2022/09/14 08:25:11;;;;;;;1.65;1.55;;;23.30;99.90;;;;;;920211;152;27360;-77
2022/09/14 08:27:37;;;;;;;3.08;2.00;;;23.30;99.90;;;;;;912248;152;27344;-77
2022/09/14 08:30:04;;;;;;;2.45;2.00;;;23.20;99.90;;;;;;915118;152;27361;-77
2022/09/14 08:32:30;;;;;;;2.40;2.22;;;23.20;99.90;;;;;;912978;152;27372;-77
2022/09/14 08:34:57;;;;;;;2.08;1.90;;;23.10;99.90;;;;;;912793;152;27756;-77
2022/09/14 08:37:24;;;;;;;2.45;2.25;;;23.00;99.90;;;;;;914730;152;27277;-77
2022/09/14 08:39:51;;;;;;;3.22;2.60;;;23.00;99.90;;;;;;915257;152;27453;-77
2022/09/14 08:42:17;;;;;;;2.47;2.27;;;23.00;99.90;;;;;;914296;152;27329;-77
2022/09/14 08:44:52;;;;;;;3.60;2.35;;;23.00;99.90;;;;;;912907;152;27421;-77
2022/09/14 08:47:28;;;;;;;2.35;2.15;;;23.00;99.90;;;;;;911681;152;27458;-77
2022/09/14 08:49:57;;;;;;;2.17;1.92;;;23.10;99.90;;;;;;912866;152;27282;-77
2022/09/14 08:52:24;;;;;;;3.77;2.12;;;23.10;99.90;;;;;;915483;152;27760;-77
2022/09/14 08:54:53;;;;;;;3.35;2.02;;;23.20;99.90;;;;;;915201;152;27281;-77
2022/09/14 08:57:31;;;;;;;2.30;2.05;;;23.30;99.90;;;;;;914220;152;27467;-77
2022/09/14 09:00:16;;;;;;;2.22;1.92;;;23.40;99.90;;;;;;914772;152;27315;-77
2022/09/14 09:02:54;;;;;;;1.80;1.70;;;23.40;99.90;;;;;;913560;152;27311;-77
2022/09/14 09:05:42;;;;;;;1.92;1.82;;;23.50;99.90;;;;;;914725;152;27345;-77
2022/09/14 09:08:20;;;;;;;2.08;1.98;;;23.60;99.90;;;;;;914162;152;27450;-77
2022/09/14 09:10:47;;;;;;;1.98;1.80;;;23.70;99.90;;;;;;912987;152;27353;-78
2022/09/14 09:13:13;;;;;;;1.98;1.87;;;23.70;99.90;;;;;;914229;152;27333;-77
2022/09/14 09:15:42;;;;;;;3.45;1.80;;;23.70;99.90;;;;;;913150;152;27399;-77
2022/09/14 09:18:12;;;;;;;1.55;1.45;;;23.80;99.90;;;;;;908309;152;27478;-77
2022/09/14 09:20:39;;;;;;;2.20;2.00;;;23.90;99.90;;;;;;915029;152;27324;-77
2022/09/14 09:23:21;;;;;;;2.05;1.95;;;23.90;99.90;;;;;;911705;152;27262;-77
2022/09/14 09:26:11;;;;;;;1.67;1.57;;;23.90;99.90;;;;;;912460;152;27384;-77
2022/09/14 09:28:40;;;;;;;2.12;1.95;;;23.90;99.90;;;;;;913560;152;27448;-77
2022/09/14 09:31:07;;;;;;;1.72;1.60;;;23.90;99.90;;;;;;912193;152;27445;-77
2022/09/14 09:33:33;;;;;;;1.65;1.55;;;23.90;99.90;;;;;;915278;152;28241;-77
2022/09/14 09:36:00;;;;;;;2.40;1.70;;;23.90;99.90;;;;;;913795;152;27697;-77
2022/09/14 09:38:27;;;;;;;2.27;2.08;;;24.00;99.90;;;;;;915204;152;27427;-77
2022/09/14 09:41:11;;;;;;;2.10;1.90;;;24.00;99.90;;;;;;914009;152;27286;-77
2022/09/14 09:43:47;;;;;;;4.30;1.98;;;24.10;99.90;;;;;;915988;152;27398;-77
2022/09/14 09:46:14;;;;;;;2.00;1.90;;;24.20;99.90;;;;;;911286;152;27490;-77
2022/09/14 09:48:40;;;;;;;2.12;1.95;;;24.30;99.90;;;;;;913135;152;27297;-77
2022/09/14 09:51:15;;;;;;;2.45;2.25;;;24.40;99.90;;;;;;916043;152;27341;-77
2022/09/14 09:53:45;;;;;;;3.47;2.50;;;24.50;99.90;;;;;;914411;152;27233;-77
2022/09/14 09:56:17;;;;;;;2.60;2.40;;;24.60;99.90;;;;;;911999;152;27518;-77
2022/09/14 09:58:45;;;;;;;2.83;2.55;;;24.60;99.90;;;;;;910574;152;27428;-77
2022/09/14 10:01:28;;;;;;;3.08;2.25;;;24.70;99.90;;;;;;913321;152;27281;-77
2022/09/14 10:04:04;;;;;;;3.37;2.52;;;24.70;99.40;;;;;;914121;152;27334;-77
2022/09/14 10:06:30;;;;;;;2.77;2.58;;;24.60;99.00;;;;;;912981;152;27930;-77
2022/09/14 10:08:57;;;;;;;2.80;2.60;;;24.50;99.10;;;;;;914139;152;27348;-77
2022/09/14 10:11:36;;;;;;;2.83;2.62;;;24.50;98.80;;;;;;912752;152;27332;-77
2022/09/14 10:14:02;;;;;;;3.37;3.00;;;24.40;98.80;;;;;;913356;152;27415;-77
2022/09/14 10:16:31;;;;;;;5.15;3.30;;;24.30;98.30;;;;;;913464;152;27303;-77
2022/09/14 10:18:58;;;;;;;3.37;3.17;;;24.20;98.70;;;;;;915922;152;27363;-77
2022/09/14 10:21:24;;;;;;;3.52;3.22;;;24.10;98.70;;;;;;914604;152;28521;-77
2022/09/14 10:24:06;;;;;;;3.58;3.27;;;24.10;98.90;;;;;;916805;152;27390;-77
2022/09/14 10:26:32;;;;;;;3.75;3.45;;;24.00;99.40;;;;;;915056;152;27394;-77
2022/09/14 10:29:08;;;;;;;4.15;3.60;;;23.90;99.30;;;;;;921320;151;27291;-77
2022/09/14 10:31:36;;;;;;;4.12;3.72;;;23.80;99.80;;;;;;912974;151;27349;-77
2022/09/14 10:34:01;;;;;;;3.58;3.27;;;23.80;99.90;;;;;;922382;151;28275;-77
2022/09/14 10:36:43;;;;;;;4.30;3.95;;;23.80;99.90;;;;;;923357;151;27303;-77
2022/09/14 10:39:13;;;;;;;3.67;3.37;;;23.80;99.90;;;;;;922445;149;27423;-77
2022/09/14 10:42:12;;;;;;;5.25;4.75;;;23.80;99.90;;;;;;922713;151;27863;-77
2022/09/14 10:45:03;;;;;;;5.28;4.83;;;23.90;99.90;;;;;;922388;151;27393;-77
2022/09/14 10:47:41;;;;;;;5.53;5.03;;;23.90;99.90;;;;;;922547;151;27353;-77
2022/09/14 10:50:32;;;;;;;5.03;4.60;;;23.90;99.90;;;;;;922391;152;28404;-77
2022/09/14 10:53:13;;;;;;;5.37;4.87;;;23.90;99.90;;;;;;921444;151;27336;-77
2022/09/14 10:56:01;;;;;;;4.78;4.40;;;23.90;99.90;;;;;;922129;151;27327;-77
2022/09/14 10:58:46;;;;;;;4.85;4.35;;;23.80;99.90;;;;;;921260;151;27338;-77
2022/09/14 11:01:15;;;;;;;5.40;5.00;;;23.90;99.90;;;;;;921075;151;27324;-77
2022/09/14 11:03:57;;;;;;;5.28;4.87;;;23.90;99.90;;;;;;921660;151;27384;-77
2022/09/14 11:06:26;;;;;;;5.03;4.62;;;24.00;99.90;;;;;;919172;151;27362;-77
2022/09/14 11:08:53;;;;;;;5.65;5.15;;;24.10;99.90;;;;;;911425;151;27330;-77
2022/09/14 11:11:22;;;;;;;5.55;5.15;;;24.20;99.90;;;;;;920567;151;27314;-77
2022/09/14 11:13:56;;;;;;;5.40;5.00;;;24.40;99.90;;;;;;923683;151;27379;-77
2022/09/14 11:16:24;;;;;;;5.53;5.12;;;24.60;99.90;;;;;;919911;151;27856;-77
2022/09/14 11:18:57;;;;;;;5.50;5.10;;;24.80;99.90;;;;;;921287;151;27303;-77
2022/09/14 11:21:28;;;;;;;5.47;5.08;;;25.10;99.90;;;;;;922257;151;27363;-77
2022/09/14 11:23:55;;;;;;;4.70;4.33;;;25.30;99.90;;;;;;921131;151;27318;-77
2022/09/14 11:26:33;;;;;;;5.60;5.10;;;25.60;99.90;;;;;;922713;151;27390;-77
2022/09/14 11:29:00;;;;;;;5.62;5.05;;;25.80;99.90;;;;;;913641;152;27443;-77
2022/09/14 11:31:39;;;;;;;4.92;4.53;;;26.00;99.90;;;;;;908201;152;27439;-77
2022/09/14 11:34:29;;;;;;;4.33;4.03;;;26.20;99.70;;;;;;913354;152;27422;-77
2022/09/14 11:36:56;;;;;;;4.22;3.83;;;26.50;98.70;;;;;;913020;152;27356;-77
2022/09/14 11:39:34;;;;;;;4.35;4.03;;;26.60;97.40;;;;;;914085;152;27308;-77
2022/09/14 11:42:01;;;;;;;3.98;3.62;;;26.70;96.30;;;;;;911991;152;27336;-77
2022/09/14 11:44:33;;;;;;;4.33;4.03;;;26.90;95.00;;;;;;912326;152;27363;-77
2022/09/14 11:47:06;;;;;;;4.53;4.20;;;26.90;94.10;;;;;;913547;152;27478;-77
2022/09/14 11:49:41;;;;;;;4.65;4.35;;;26.90;93.90;;;;;;915142;152;27805;-77
2022/09/14 11:52:13;;;;;;;4.50;4.17;;;26.80;93.10;;;;;;912729;152;27296;-77
2022/09/14 11:54:40;;;;;;;4.92;4.53;;;26.80;92.90;;;;;;914664;152;27368;-77
2022/09/14 11:57:06;;;;;;;5.17;4.15;;;26.70;92.70;;;;;;916556;152;27366;-77
2022/09/14 11:59:36;;;;;;;4.70;4.40;;;26.60;92.40;;;;;;912878;152;27415;-77
2022/09/14 12:02:24;;;;;;;5.35;4.85;;;26.60;92.10;;;;;;911999;152;27431;-77
2022/09/14 12:05:09;;;;;;;4.22;3.90;;;26.40;92.10;;;;;;913622;152;27425;-77
2022/09/14 12:07:44;;;;;;;4.33;3.92;;;26.30;92.20;;;;;;912945;152;27799;-77
2022/09/14 12:10:13;;;;;;;4.55;4.25;;;26.20;92.60;;;;;;913089;152;27355;-77
2022/09/14 12:12:58;;;;;;;4.90;4.50;;;26.10;92.30;;;;;;914567;152;27325;-77
2022/09/14 12:15:28;;;;;;;4.95;4.40;;;26.00;92.70;;;;;;914096;152;27407;-77
2022/09/14 12:18:06;;;;;;;4.85;4.47;;;25.80;92.90;;;;;;916351;152;27277;-77
2022/09/14 12:20:41;;;;;;;4.50;4.10;;;25.80;93.10;;;;;;913341;152;27329;-77
2022/09/14 12:23:29;;;;;;;5.42;4.67;;;25.70;93.20;;;;;;915794;152;27367;-77
2022/09/14 12:26:05;;;;;;;4.70;4.10;;;25.60;93.20;;;;;;914937;152;27376;-77
2022/09/14 12:28:37;;;;;;;5.20;4.80;;;25.40;93.40;;;;;;913909;152;27353;-77
2022/09/14 12:31:03;;;;;;;4.58;4.28;;;25.40;93.60;;;;;;913531;152;27374;-77
2022/09/14 12:33:30;;;;;;;4.10;3.80;;;25.40;94.10;;;;;;913303;152;27489;-77
2022/09/14 12:36:02;;;;;;;4.67;4.35;;;25.40;94.40;;;;;;914516;152;27351;-77
2022/09/14 12:38:31;;;;;;;5.05;4.65;;;25.40;94.30;;;;;;914276;151;27421;-77
2022/09/14 12:40:58;;;;;;;4.72;4.42;;;25.40;94.60;;;;;;914328;152;27350;-77
2022/09/14 12:43:34;;;;;;;5.53;4.70;;;25.40;95.20;;;;;;913429;152;27506;-77
2022/09/14 12:46:09;;;;;;;5.42;4.83;;;25.50;94.70;;;;;;915975;152;27480;-77
2022/09/14 12:48:48;;;;;;;5.25;4.75;;;25.60;95.10;;;;;;915413;152;27393;-77
2022/09/14 12:51:14;;;;;;;4.70;4.33;;;25.70;94.90;;;;;;915108;152;27753;-77
2022/09/14 12:53:41;;;;;;;4.47;4.17;;;25.80;94.70;;;;;;912290;152;27260;-77
2022/09/14 12:56:07;;;;;;;5.15;4.70;;;25.90;94.10;;;;;;914672;152;27339;-77
2022/09/14 12:58:40;;;;;;;4.37;3.98;;;25.90;93.80;;;;;;913863;152;27340;-77
2022/09/14 13:01:27;;;;;;;6.05;4.15;;;26.00;93.80;;;;;;911158;152;27409;-77